createdAt,value
2017-04-07T00:00:08.686Z,8.6
2017-04-07T00:00:18.677Z,8.6
2017-04-07T00:00:28.673Z,8.6
2017-04-07T00:00:38.668Z,8.7
2017-04-07T00:00:48.913Z,8.6
2017-04-07T00:00:58.656Z,8.6
2017-04-07T00:01:08.649Z,8.6
2017-04-07T00:01:18.645Z,8.6
2017-04-07T00:01:28.637Z,8.6
2017-04-07T00:01:38.633Z,8.6
2017-04-07T00:01:48.627Z,8.6
2017-04-07T00:01:58.622Z,8.6
2017-04-07T00:02:08.614Z,8.6
2017-04-07T00:02:18.608Z,8.6
2017-04-07T00:02:28.605Z,8.6
2017-04-07T00:02:38.599Z,8.6
2017-04-07T00:02:48.590Z,8.6
2017-04-07T00:02:58.584Z,8.6
2017-04-07T00:03:08.580Z,8.6
2017-04-07T00:03:18.573Z,8.6
2017-04-07T00:03:28.568Z,8.6
2017-04-07T00:03:38.561Z,8.6
2017-04-07T00:03:48.555Z,8.6
2017-04-07T00:03:58.552Z,8.6
2017-04-07T00:04:08.545Z,8.6
2017-04-07T00:04:18.537Z,8.6
2017-04-07T00:04:28.531Z,8.6
2017-04-07T00:04:38.528Z,8.6
2017-04-07T00:04:48.519Z,8.6
2017-04-07T00:04:58.514Z,8.6
2017-04-07T00:05:08.510Z,8.6
2017-04-07T00:05:18.503Z,8.6
2017-04-07T00:05:28.496Z,8.6
2017-04-07T00:05:38.490Z,8.6
2017-04-07T00:05:48.786Z,8.6
2017-04-07T00:05:58.478Z,8.7
2017-04-07T00:06:08.471Z,8.6
2017-04-07T00:06:18.469Z,8.6
2017-04-07T00:06:28.461Z,8.6
2017-04-07T00:06:38.457Z,8.6
2017-04-07T00:06:48.452Z,8.6
2017-04-07T00:06:58.442Z,8.6
2017-04-07T00:07:08.438Z,8.5
2017-04-07T00:07:18.434Z,8.6
2017-04-07T00:07:28.427Z,8.6
2017-04-07T00:07:38.422Z,8.6
2017-04-07T00:07:48.417Z,8.6
2017-04-07T00:07:58.408Z,8.6
2017-04-07T00:08:08.402Z,8.6
2017-04-07T00:08:18.398Z,8.6
2017-04-07T00:08:28.393Z,8.6
2017-04-07T00:08:38.386Z,8.6
2017-04-07T00:08:48.382Z,8.6
2017-04-07T00:08:58.374Z,8.6
2017-04-07T00:09:08.368Z,8.6
2017-04-07T00:09:18.361Z,8.6
2017-04-07T00:09:28.359Z,8.5
2017-04-07T00:09:38.350Z,8.6
2017-04-07T00:09:48.346Z,8.6
2017-04-07T00:09:58.339Z,8.5
2017-04-07T00:10:08.333Z,8.6
2017-04-07T00:10:18.326Z,8.5
2017-04-07T00:10:28.321Z,8.5
2017-04-07T00:10:38.316Z,8.6
2017-04-07T00:10:48.560Z,8.5
2017-04-07T00:10:58.305Z,8.5
2017-04-07T00:11:08.297Z,8.5
2017-04-07T00:11:18.294Z,8.5
2017-04-07T00:11:28.285Z,8.6
2017-04-07T00:11:38.281Z,8.6
2017-04-07T00:11:48.278Z,8.6
2017-04-07T00:11:58.271Z,8.6
2017-04-07T00:12:08.268Z,8.5
2017-04-07T00:12:18.257Z,8.5
2017-04-07T00:12:28.249Z,8.6
2017-04-07T00:12:38.242Z,8.5
2017-04-07T00:12:48.239Z,8.6
2017-04-07T00:12:58.236Z,8.6
2017-04-07T00:13:08.228Z,8.6
2017-04-07T00:13:18.220Z,8.5
2017-04-07T00:13:28.217Z,8.5
2017-04-07T00:13:38.211Z,8.5
2017-04-07T00:13:48.203Z,8.5
2017-04-07T00:13:58.199Z,8.5
2017-04-07T00:14:08.191Z,8.5
2017-04-07T00:14:18.187Z,8.5
2017-04-07T00:14:28.184Z,8.5
2017-04-07T00:14:38.173Z,8.5
2017-04-07T00:14:48.169Z,8.5
2017-04-07T00:14:58.163Z,8.5
2017-04-07T00:15:08.156Z,8.5
2017-04-07T00:15:18.150Z,8.5
2017-04-07T00:15:28.144Z,8.5
2017-04-07T00:15:38.139Z,8.5
2017-04-07T00:15:48.435Z,8.5
2017-04-07T00:15:58.127Z,8.5
2017-04-07T00:16:08.124Z,8.5
2017-04-07T00:16:18.115Z,8.5
2017-04-07T00:16:28.111Z,8.5
2017-04-07T00:16:38.103Z,8.5
2017-04-07T00:16:48.097Z,8.5
2017-04-07T00:16:58.092Z,8.5
2017-04-07T00:17:08.086Z,8.4
2017-04-07T00:17:18.083Z,8.4
2017-04-07T00:17:28.076Z,8.5
2017-04-07T00:17:38.071Z,8.4
2017-04-07T00:17:48.063Z,8.5
2017-04-07T00:17:58.061Z,8.5
2017-04-07T00:18:08.052Z,8.5
2017-04-07T00:18:18.044Z,8.5
2017-04-07T00:18:28.041Z,8.5
2017-04-07T00:18:38.033Z,8.4
2017-04-07T00:18:48.027Z,8.5
2017-04-07T00:18:58.022Z,8.4
2017-04-07T00:19:08.016Z,8.5
2017-04-07T00:19:18.017Z,8.5
2017-04-07T00:19:28.003Z,8.5
2017-04-07T00:19:38.001Z,8.4
2017-04-07T00:19:47.995Z,8.4
2017-04-07T00:19:57.989Z,8.4
2017-04-07T00:20:07.983Z,8.4
2017-04-07T00:20:17.974Z,8.5
2017-04-07T00:20:27.970Z,8.5
2017-04-07T00:20:37.967Z,8.5
2017-04-07T00:20:47.957Z,8.5
2017-04-07T00:20:57.951Z,8.5
2017-04-07T00:21:07.945Z,8.5
2017-04-07T00:21:17.939Z,8.5
2017-04-07T00:21:27.933Z,8.5
2017-04-07T00:21:37.926Z,8.5
2017-04-07T00:21:47.923Z,8.5
2017-04-07T00:21:57.917Z,8.5
2017-04-07T00:22:07.912Z,8.5
2017-04-07T00:22:17.907Z,8.5
2017-04-07T00:22:27.899Z,8.4
2017-04-07T00:22:37.894Z,8.4
2017-04-07T00:22:47.886Z,8.5
2017-04-07T00:22:57.882Z,8.4
2017-04-07T00:23:07.874Z,8.5
2017-04-07T00:23:17.871Z,8.5
2017-04-07T00:23:27.864Z,8.5
2017-04-07T00:23:37.860Z,8.5
2017-04-07T00:23:47.854Z,8.4
2017-04-07T00:23:57.846Z,8.5
2017-04-07T00:24:07.842Z,8.4
2017-04-07T00:24:17.832Z,8.5
2017-04-07T00:24:27.829Z,8.5
2017-04-07T00:24:37.823Z,8.5
2017-04-07T00:24:47.818Z,8.4
2017-04-07T00:24:57.810Z,8.4
2017-04-07T00:25:07.807Z,8.5
2017-04-07T00:25:17.800Z,8.5
2017-04-07T00:25:27.795Z,8.4
2017-04-07T00:25:37.788Z,8.4
2017-04-07T00:25:47.781Z,8.5
2017-04-07T00:25:57.774Z,8.5
2017-04-07T00:26:07.772Z,8.5
2017-04-07T00:26:17.763Z,8.5
2017-04-07T00:26:27.760Z,8.4
2017-04-07T00:26:37.751Z,8.5
2017-04-07T00:26:47.748Z,8.5
2017-04-07T00:26:57.742Z,8.4
2017-04-07T00:27:07.737Z,8.5
2017-04-07T00:27:17.730Z,8.4
2017-04-07T00:27:27.721Z,8.3
2017-04-07T00:27:37.717Z,8.4
2017-04-07T00:27:47.713Z,8.4
2017-04-07T00:27:57.704Z,8.3
2017-04-07T00:28:07.700Z,8.3
2017-04-07T00:28:17.693Z,8.3
2017-04-07T00:28:27.686Z,8.3
2017-04-07T00:28:37.680Z,8.4
2017-04-07T00:28:47.676Z,8.3
2017-04-07T00:28:57.671Z,8.4
2017-04-07T00:29:07.662Z,8.4
2017-04-07T00:29:17.658Z,8.4
2017-04-07T00:29:27.654Z,8.3
2017-04-07T00:29:37.645Z,8.3
2017-04-07T00:29:47.642Z,8.4
2017-04-07T00:29:57.636Z,8.3
2017-04-07T00:30:07.631Z,8.4
2017-04-07T00:30:17.624Z,8.4
2017-04-07T00:30:27.616Z,8.4
2017-04-07T00:30:37.609Z,8.4
2017-04-07T00:30:47.857Z,8.3
2017-04-07T00:30:57.598Z,8.4
2017-04-07T00:31:07.595Z,8.3
2017-04-07T00:31:17.590Z,8.4
2017-04-07T00:31:27.580Z,8.4
2017-04-07T00:31:37.575Z,8.3
2017-04-07T00:31:47.574Z,8.4
2017-04-07T00:31:57.565Z,8.4
2017-04-07T00:32:07.557Z,8.4
2017-04-07T00:32:17.553Z,8.3
2017-04-07T00:32:27.554Z,8.3
2017-04-07T00:32:37.540Z,8.4
2017-04-07T00:32:47.535Z,8.4
2017-04-07T00:32:57.528Z,8.4
2017-04-07T00:33:07.525Z,8.4
2017-04-07T00:33:17.518Z,8.4
2017-04-07T00:33:27.510Z,8.4
2017-04-07T00:33:37.503Z,8.3
2017-04-07T00:33:47.500Z,8.4
2017-04-07T00:33:57.495Z,8.4
2017-04-07T00:34:07.489Z,8.4
2017-04-07T00:34:17.482Z,8.3
2017-04-07T00:34:27.475Z,8.4
2017-04-07T00:34:37.468Z,8.3
2017-04-07T00:34:47.466Z,8.4
2017-04-07T00:34:57.457Z,8.4
2017-04-07T00:35:07.458Z,8.5
2017-04-07T00:35:17.449Z,8.5
2017-04-07T00:35:27.441Z,8.4
2017-04-07T00:35:37.434Z,8.4
2017-04-07T00:35:47.678Z,8.4
2017-04-07T00:35:57.422Z,8.4
2017-04-07T00:36:07.419Z,8.4
2017-04-07T00:36:17.411Z,8.4
2017-04-07T00:36:27.407Z,8.4
2017-04-07T00:36:37.401Z,8.4
2017-04-07T00:36:47.395Z,8.3
2017-04-07T00:36:57.389Z,8.4
2017-04-07T00:37:07.380Z,8.4
2017-04-07T00:37:17.375Z,8.3
2017-04-07T00:37:27.370Z,8.4
2017-04-07T00:37:37.362Z,8.4
2017-04-07T00:37:47.359Z,8.4
2017-04-07T00:37:57.351Z,8.4
2017-04-07T00:38:07.348Z,8.4
2017-04-07T00:38:17.341Z,8.4
2017-04-07T00:38:27.335Z,8.3
2017-04-07T00:38:37.328Z,8.4
2017-04-07T00:38:47.326Z,8.3
2017-04-07T00:38:57.315Z,8.2
2017-04-07T00:39:07.311Z,8.4
2017-04-07T00:39:17.306Z,8.4
2017-04-07T00:39:27.301Z,8.3
2017-04-07T00:39:37.294Z,8.2
2017-04-07T00:39:47.292Z,8.2
2017-04-07T00:39:57.285Z,8.2
2017-04-07T00:40:07.276Z,8.3
2017-04-07T00:40:17.271Z,8.3
2017-04-07T00:40:27.269Z,8.3
2017-04-07T00:40:37.258Z,8.3
2017-04-07T00:40:47.503Z,8.2
2017-04-07T00:40:57.246Z,8.4
2017-04-07T00:41:07.243Z,8.3
2017-04-07T00:41:17.234Z,8.4
2017-04-07T00:41:27.228Z,8.3
2017-04-07T00:41:37.222Z,8.3
2017-04-07T00:41:47.216Z,8.3
2017-04-07T00:41:57.213Z,8.4
2017-04-07T00:42:07.204Z,8.3
2017-04-07T00:42:17.200Z,8.3
2017-04-07T00:42:27.194Z,8.2
2017-04-07T00:42:37.186Z,8.2
2017-04-07T00:42:47.182Z,8.3
2017-04-07T00:42:57.178Z,8.3
2017-04-07T00:43:07.171Z,8.3
2017-04-07T00:43:17.165Z,8.3
2017-04-07T00:43:27.159Z,8.2
2017-04-07T00:43:37.152Z,8.4
2017-04-07T00:43:47.146Z,8.3
2017-04-07T00:43:57.140Z,8.3
2017-04-07T00:44:07.136Z,8.4
2017-04-07T00:44:17.130Z,8.2
2017-04-07T00:44:27.122Z,8.2
2017-04-07T00:44:37.117Z,8.3
2017-04-07T00:44:47.112Z,8.3
2017-04-07T00:44:57.103Z,8.4
2017-04-07T00:45:07.101Z,8.4
2017-04-07T00:45:17.091Z,8.3
2017-04-07T00:45:27.088Z,8.4
2017-04-07T00:45:37.082Z,8.3
2017-04-07T00:45:47.076Z,8.3
2017-04-07T00:45:57.069Z,8.3
2017-04-07T00:46:07.065Z,8.2
2017-04-07T00:46:17.057Z,8.2
2017-04-07T00:46:27.052Z,8.3
2017-04-07T00:46:37.044Z,8.2
2017-04-07T00:46:47.044Z,8.3
2017-04-07T00:46:57.033Z,8.3
2017-04-07T00:47:07.028Z,8.3
2017-04-07T00:47:17.035Z,8.2
2017-04-07T00:47:27.016Z,8.3
2017-04-07T00:47:37.010Z,8.2
2017-04-07T00:47:47.005Z,8.2
2017-04-07T00:47:56.998Z,8.2
2017-04-07T00:48:06.994Z,8.3
2017-04-07T00:48:16.985Z,8.3
2017-04-07T00:48:26.980Z,8.2
2017-04-07T00:48:36.978Z,8.2
2017-04-07T00:48:46.968Z,8.2
2017-04-07T00:48:56.964Z,8.2
2017-04-07T00:49:06.957Z,8.1
2017-04-07T00:49:16.950Z,8.1
2017-04-07T00:49:26.947Z,8.1
2017-04-07T00:49:36.941Z,8.2
2017-04-07T00:49:46.933Z,8.1
2017-04-07T00:49:56.928Z,8.1
2017-04-07T00:50:06.922Z,8.2
2017-04-07T00:50:16.918Z,8.2
2017-04-07T00:50:26.910Z,8.2
2017-04-07T00:50:36.916Z,8.3
2017-04-07T00:50:46.900Z,8.3
2017-04-07T00:50:56.891Z,8.3
2017-04-07T00:51:06.888Z,8.2
2017-04-07T00:51:16.881Z,8.2
2017-04-07T00:51:26.907Z,8.2
2017-04-07T00:51:36.869Z,8.2
2017-04-07T00:51:46.866Z,8.2
2017-04-07T00:51:56.858Z,8.2
2017-04-07T00:52:06.852Z,8.3
2017-04-07T00:52:16.844Z,8.2
2017-04-07T00:52:26.839Z,8.2
2017-04-07T00:52:36.835Z,8.3
2017-04-07T00:52:46.828Z,8.3
2017-04-07T00:52:56.823Z,8.2
2017-04-07T00:53:06.818Z,8.2
2017-04-07T00:53:16.813Z,8.3
2017-04-07T00:53:26.804Z,8.2
2017-04-07T00:53:36.799Z,8.1
2017-04-07T00:53:46.794Z,8.2
2017-04-07T00:53:56.786Z,8.2
2017-04-07T00:54:06.780Z,8.1
2017-04-07T00:54:16.774Z,8.2
2017-04-07T00:54:26.769Z,8.3
2017-04-07T00:54:36.765Z,8.1
2017-04-07T00:54:46.760Z,8.1
2017-04-07T00:54:56.753Z,8.2
2017-04-07T00:55:06.745Z,8.1
2017-04-07T00:55:16.741Z,8.2
2017-04-07T00:55:26.735Z,8.2
2017-04-07T00:55:36.729Z,8.2
2017-04-07T00:55:46.722Z,8.1
2017-04-07T00:55:56.718Z,8.3
2017-04-07T00:56:06.711Z,8.2
2017-04-07T00:56:16.703Z,8.2
2017-04-07T00:56:26.698Z,8.3
2017-04-07T00:56:36.691Z,8.2
2017-04-07T00:56:46.685Z,8.2
2017-04-07T00:56:56.679Z,8.2
2017-04-07T00:57:06.677Z,8.2
2017-04-07T00:57:16.670Z,8.3
2017-04-07T00:57:26.664Z,8.3
2017-04-07T00:57:36.655Z,8.2
2017-04-07T00:57:46.653Z,8.2
2017-04-07T00:57:56.644Z,8.2
2017-04-07T00:58:06.640Z,8.2
2017-04-07T00:58:16.634Z,8.3
2017-04-07T00:58:26.626Z,8.2
2017-04-07T00:58:36.623Z,8.3
2017-04-07T00:58:46.616Z,8.2
2017-04-07T00:58:56.611Z,8.3
2017-04-07T00:59:06.605Z,8.2
2017-04-07T00:59:16.597Z,8.3
2017-04-07T00:59:26.593Z,8.3
2017-04-07T00:59:36.585Z,8.3
2017-04-07T00:59:46.582Z,8.2
2017-04-07T00:59:56.573Z,8.3
2017-04-07T01:00:06.567Z,8.2
2017-04-07T01:00:16.564Z,8.2
2017-04-07T01:00:26.558Z,8.3
2017-04-07T01:00:36.552Z,8.2
2017-04-07T01:00:46.797Z,8.3
2017-04-07T01:00:56.539Z,8.3
2017-04-07T01:01:06.535Z,8.3
2017-04-07T01:01:16.526Z,8.2
2017-04-07T01:01:26.521Z,8.2
2017-04-07T01:01:36.515Z,8.1
2017-04-07T01:01:46.511Z,8.2
2017-04-07T01:01:56.505Z,8.2
2017-04-07T01:02:06.496Z,8.1
2017-04-07T01:02:16.491Z,8.1
2017-04-07T01:02:26.485Z,8.2
2017-04-07T01:02:36.480Z,8.1
2017-04-07T01:02:46.475Z,8.1
2017-04-07T01:02:56.470Z,8.1
2017-04-07T01:03:06.463Z,8.1
2017-04-07T01:03:16.455Z,8.1
2017-04-07T01:03:26.448Z,8.2
2017-04-07T01:03:36.444Z,8.3
2017-04-07T01:03:46.440Z,8.3
2017-04-07T01:03:56.431Z,8.2
2017-04-07T01:04:06.428Z,8.2
2017-04-07T01:04:16.424Z,8.3
2017-04-07T01:04:26.413Z,8.1
2017-04-07T01:04:36.408Z,8.2
2017-04-07T01:04:46.405Z,8.1
2017-04-07T01:04:56.396Z,8.2
2017-04-07T01:05:06.393Z,8.2
2017-04-07T01:05:16.386Z,8.2
2017-04-07T01:05:26.379Z,8.1
2017-04-07T01:05:36.372Z,8.2
2017-04-07T01:05:46.620Z,8.1
2017-04-07T01:05:56.361Z,8.1
2017-04-07T01:06:06.356Z,8.2
2017-04-07T01:06:16.352Z,8.2
2017-04-07T01:06:26.345Z,8.2
2017-04-07T01:06:36.338Z,8.2
2017-04-07T01:06:46.334Z,8.2
2017-04-07T01:06:56.327Z,8.2
2017-04-07T01:07:06.321Z,8.2
2017-04-07T01:07:16.314Z,8.3
2017-04-07T01:07:26.307Z,8.2
2017-04-07T01:07:36.301Z,8.2
2017-04-07T01:07:46.298Z,8.2
2017-04-07T01:07:56.292Z,8.1
2017-04-07T01:08:06.284Z,8.2
2017-04-07T01:08:16.279Z,8.1
2017-04-07T01:08:26.273Z,8.2
2017-04-07T01:08:36.267Z,8.1
2017-04-07T01:08:46.262Z,8.2
2017-04-07T01:08:56.256Z,8.1
2017-04-07T01:09:06.252Z,8.1
2017-04-07T01:09:16.250Z,8.1
2017-04-07T01:09:26.239Z,8.1
2017-04-07T01:09:36.231Z,8.2
2017-04-07T01:09:46.225Z,8.2
2017-04-07T01:09:56.219Z,8.1
2017-04-07T01:10:06.214Z,8
2017-04-07T01:10:16.208Z,8.2
2017-04-07T01:10:26.201Z,8.2
2017-04-07T01:10:36.195Z,8.2
2017-04-07T01:10:46.442Z,8.2
2017-04-07T01:10:56.183Z,8.2
2017-04-07T01:11:06.179Z,8.2
2017-04-07T01:11:16.175Z,8.2
2017-04-07T01:11:26.167Z,8.2
2017-04-07T01:11:36.162Z,8.2
2017-04-07T01:11:46.154Z,8.2
2017-04-07T01:11:56.151Z,8.1
2017-04-07T01:12:06.143Z,8.2
2017-04-07T01:12:16.139Z,8.2
2017-04-07T01:12:26.133Z,8.2
2017-04-07T01:12:36.126Z,8.1
2017-04-07T01:12:46.117Z,8.2
2017-04-07T01:12:56.114Z,8.2
2017-04-07T01:13:06.107Z,8.2
2017-04-07T01:13:16.101Z,8.1
2017-04-07T01:13:26.098Z,8.2
2017-04-07T01:13:36.089Z,8.2
2017-04-07T01:13:46.086Z,8.2
2017-04-07T01:13:56.077Z,8.2
2017-04-07T01:14:06.071Z,8.2
2017-04-07T01:14:16.067Z,8.1
2017-04-07T01:14:26.059Z,8
2017-04-07T01:14:36.055Z,8.1
2017-04-07T01:14:46.049Z,8.1
2017-04-07T01:14:56.043Z,8.1
2017-04-07T01:15:06.039Z,8
2017-04-07T01:15:16.032Z,8.1
2017-04-07T01:15:26.023Z,8.1
2017-04-07T01:15:36.021Z,8
2017-04-07T01:15:46.012Z,8.1
2017-04-07T01:15:56.008Z,8.1
2017-04-07T01:16:06.002Z,8.1
2017-04-07T01:16:15.994Z,8.1
2017-04-07T01:16:25.991Z,8
2017-04-07T01:16:35.986Z,8.1
2017-04-07T01:16:45.976Z,8
2017-04-07T01:16:55.973Z,8.1
2017-04-07T01:17:05.969Z,8
2017-04-07T01:17:15.962Z,8
2017-04-07T01:17:25.955Z,8.1
2017-04-07T01:17:35.948Z,8.1
2017-04-07T01:17:45.942Z,8
2017-04-07T01:17:55.938Z,8
2017-04-07T01:18:05.933Z,8
2017-04-07T01:18:15.927Z,8.1
2017-04-07T01:18:25.918Z,8.1
2017-04-07T01:18:35.913Z,8.1
2017-04-07T01:18:45.907Z,8
2017-04-07T01:18:55.899Z,8
2017-04-07T01:19:05.895Z,8
2017-04-07T01:19:15.890Z,8
2017-04-07T01:19:25.885Z,7.9
2017-04-07T01:19:35.877Z,8
2017-04-07T01:19:45.872Z,8
2017-04-07T01:19:55.864Z,8
2017-04-07T01:20:05.859Z,8
2017-04-07T01:20:15.854Z,8
2017-04-07T01:20:25.848Z,8
2017-04-07T01:20:35.843Z,7.9
2017-04-07T01:20:45.835Z,8
2017-04-07T01:20:55.832Z,8
2017-04-07T01:21:05.825Z,8
2017-04-07T01:21:15.820Z,8
2017-04-07T01:21:25.813Z,8
2017-04-07T01:21:35.807Z,7.9
2017-04-07T01:21:45.799Z,7.9
2017-04-07T01:21:55.795Z,8
2017-04-07T01:22:05.788Z,7.9
2017-04-07T01:22:15.785Z,7.9
2017-04-07T01:22:25.779Z,7.9
2017-04-07T01:22:35.770Z,8
2017-04-07T01:22:45.767Z,8
2017-04-07T01:22:55.759Z,7.9
2017-04-07T01:23:05.751Z,7.9
2017-04-07T01:23:15.746Z,7.9
2017-04-07T01:23:25.743Z,7.8
2017-04-07T01:23:35.736Z,7.8
2017-04-07T01:23:45.731Z,7.8
2017-04-07T01:23:55.724Z,7.9
2017-04-07T01:24:05.744Z,7.9
2017-04-07T01:24:15.711Z,7.9
2017-04-07T01:24:25.704Z,7.9
2017-04-07T01:24:35.701Z,7.8
2017-04-07T01:24:45.693Z,7.9
2017-04-07T01:24:55.687Z,7.8
2017-04-07T01:25:05.682Z,7.8
2017-04-07T01:25:15.676Z,7.9
2017-04-07T01:25:25.672Z,7.8
2017-04-07T01:25:35.664Z,7.9
2017-04-07T01:25:45.909Z,7.9
2017-04-07T01:25:55.654Z,7.9
2017-04-07T01:26:05.648Z,7.9
2017-04-07T01:26:15.639Z,7.8
2017-04-07T01:26:25.634Z,7.9
2017-04-07T01:26:35.628Z,7.8
2017-04-07T01:26:45.625Z,7.8
2017-04-07T01:26:55.616Z,7.8
2017-04-07T01:27:05.612Z,7.8
2017-04-07T01:27:15.604Z,7.7
2017-04-07T01:27:25.601Z,7.8
2017-04-07T01:27:35.592Z,7.8
2017-04-07T01:27:45.588Z,7.7
2017-04-07T01:27:55.581Z,7.6
2017-04-07T01:28:05.578Z,7.9
2017-04-07T01:28:15.568Z,7.7
2017-04-07T01:28:25.563Z,7.8
2017-04-07T01:28:35.560Z,7.8
2017-04-07T01:28:45.550Z,7.8
2017-04-07T01:28:55.566Z,7.8
2017-04-07T01:29:05.540Z,7.8
2017-04-07T01:29:15.536Z,7.7
2017-04-07T01:29:25.528Z,7.8
2017-04-07T01:29:35.524Z,7.8
2017-04-07T01:29:45.519Z,7.8
2017-04-07T01:29:55.512Z,7.8
2017-04-07T01:30:05.502Z,7.8
2017-04-07T01:30:15.497Z,7.8
2017-04-07T01:30:25.492Z,7.9
2017-04-07T01:30:35.485Z,7.8
2017-04-07T01:30:45.734Z,7.9
2017-04-07T01:30:55.473Z,7.9
2017-04-07T01:31:05.471Z,7.9
2017-04-07T01:31:15.465Z,7.9
2017-04-07T01:31:25.457Z,7.9
2017-04-07T01:31:35.450Z,7.9
2017-04-07T01:31:45.446Z,7.8
2017-04-07T01:31:55.440Z,7.9
2017-04-07T01:32:05.434Z,7.9
2017-04-07T01:32:15.430Z,7.9
2017-04-07T01:32:25.425Z,7.9
2017-04-07T01:32:35.418Z,7.8
2017-04-07T01:32:45.411Z,7.9
2017-04-07T01:32:55.403Z,7.9
2017-04-07T01:33:05.398Z,7.9
2017-04-07T01:33:15.390Z,7.8
2017-04-07T01:33:25.385Z,7.9
2017-04-07T01:33:35.378Z,7.9
2017-04-07T01:33:45.373Z,7.8
2017-04-07T01:33:55.370Z,7.9
2017-04-07T01:34:05.363Z,8
2017-04-07T01:34:15.358Z,7.9
2017-04-07T01:34:25.354Z,7.9
2017-04-07T01:34:35.346Z,8
2017-04-07T01:34:45.338Z,7.9
2017-04-07T01:34:55.331Z,7.9
2017-04-07T01:35:05.325Z,7.9
2017-04-07T01:35:15.323Z,7.9
2017-04-07T01:35:25.314Z,7.9
2017-04-07T01:35:35.309Z,8
2017-04-07T01:35:45.551Z,8.1
2017-04-07T01:35:55.295Z,8
2017-04-07T01:36:05.291Z,8
2017-04-07T01:36:15.284Z,8
2017-04-07T01:36:25.277Z,8.1
2017-04-07T01:36:35.273Z,8.1
2017-04-07T01:36:45.266Z,8.1
2017-04-07T01:36:55.260Z,8.1
2017-04-07T01:37:05.256Z,8.1
2017-04-07T01:37:15.251Z,8.1
2017-04-07T01:37:25.243Z,8.1
2017-04-07T01:37:35.238Z,8.2
2017-04-07T01:37:45.231Z,8.1
2017-04-07T01:37:55.226Z,8.2
2017-04-07T01:38:05.220Z,8.2
2017-04-07T01:38:15.214Z,8.1
2017-04-07T01:38:25.209Z,8.1
2017-04-07T01:38:35.203Z,8.1
2017-04-07T01:38:45.198Z,8.2
2017-04-07T01:38:55.191Z,8.2
2017-04-07T01:39:05.185Z,8.2
2017-04-07T01:39:15.177Z,8.1
2017-04-07T01:39:25.173Z,8.1
2017-04-07T01:39:35.165Z,8.2
2017-04-07T01:39:45.160Z,8.2
2017-04-07T01:39:55.155Z,8.2
2017-04-07T01:40:05.147Z,8.3
2017-04-07T01:40:15.141Z,8.2
2017-04-07T01:40:25.140Z,8.2
2017-04-07T01:40:35.130Z,8.2
2017-04-07T01:40:45.376Z,8.2
2017-04-07T01:40:55.118Z,8.2
2017-04-07T01:41:05.115Z,8.3
2017-04-07T01:41:15.109Z,8.3
2017-04-07T01:41:25.101Z,8.3
2017-04-07T01:41:35.096Z,8.3
2017-04-07T01:41:45.089Z,8.4
2017-04-07T01:41:55.086Z,8.4
2017-04-07T01:42:05.077Z,8.3
2017-04-07T01:42:15.070Z,8.4
2017-04-07T01:42:25.065Z,8.3
2017-04-07T01:42:35.061Z,8.3
2017-04-07T01:42:45.054Z,8.4
2017-04-07T01:42:55.046Z,8.4
2017-04-07T01:43:05.042Z,8.4
2017-04-07T01:43:15.037Z,8.3
2017-04-07T01:43:25.030Z,8.3
2017-04-07T01:43:35.025Z,8.4
2017-04-07T01:43:45.019Z,8.3
2017-04-07T01:43:55.011Z,8.4
2017-04-07T01:44:05.007Z,8.4
2017-04-07T01:44:15.001Z,8.5
2017-04-07T01:44:24.996Z,8.5
2017-04-07T01:44:34.988Z,8.5
2017-04-07T01:44:44.985Z,8.5
2017-04-07T01:44:54.977Z,8.5
2017-04-07T01:45:04.972Z,8.4
2017-04-07T01:45:14.966Z,8.5
2017-04-07T01:45:24.960Z,8.5
2017-04-07T01:45:34.954Z,8.5
2017-04-07T01:45:44.948Z,8.5
2017-04-07T01:45:54.944Z,8.5
2017-04-07T01:46:04.937Z,8.5
2017-04-07T01:46:14.927Z,8.5
2017-04-07T01:46:24.925Z,8.5
2017-04-07T01:46:34.916Z,8.5
2017-04-07T01:46:44.913Z,8.6
2017-04-07T01:46:54.906Z,8.5
2017-04-07T01:47:04.899Z,8.5
2017-04-07T01:47:14.893Z,8.5
2017-04-07T01:47:24.889Z,8.6
2017-04-07T01:47:34.880Z,8.6
2017-04-07T01:47:44.878Z,8.6
2017-04-07T01:47:54.868Z,8.6
2017-04-07T01:48:04.863Z,8.6
2017-04-07T01:48:14.857Z,8.6
2017-04-07T01:48:24.854Z,8.6
2017-04-07T01:48:34.846Z,8.6
2017-04-07T01:48:44.841Z,8.7
2017-04-07T01:48:54.835Z,8.7
2017-04-07T01:49:04.827Z,8.6
2017-04-07T01:49:14.821Z,8.6
2017-04-07T01:49:24.815Z,8.6
2017-04-07T01:49:34.810Z,8.6
2017-04-07T01:49:44.804Z,8.6
2017-04-07T01:49:54.798Z,8.6
2017-04-07T01:50:04.793Z,8.6
2017-04-07T01:50:14.788Z,8.6
2017-04-07T01:50:24.782Z,8.6
2017-04-07T01:50:34.775Z,8.7
2017-04-07T01:50:44.770Z,8.7
2017-04-07T01:50:54.763Z,8.6
2017-04-07T01:51:04.756Z,8.6
2017-04-07T01:51:14.753Z,8.6
2017-04-07T01:51:24.744Z,8.6
2017-04-07T01:51:34.740Z,8.7
2017-04-07T01:51:44.734Z,8.6
2017-04-07T01:51:54.726Z,8.6
2017-04-07T01:52:04.724Z,8.8
2017-04-07T01:52:14.716Z,8.7
2017-04-07T01:52:24.711Z,8.8
2017-04-07T01:52:34.705Z,8.8
2017-04-07T01:52:44.696Z,8.7
2017-04-07T01:52:54.691Z,8.7
2017-04-07T01:53:04.689Z,8.8
2017-04-07T01:53:14.681Z,8.7
2017-04-07T01:53:24.675Z,8.7
2017-04-07T01:53:34.665Z,8.8
2017-04-07T01:53:44.665Z,8.7
2017-04-07T01:53:54.658Z,8.8
2017-04-07T01:54:04.650Z,8.8
2017-04-07T01:54:14.647Z,8.8
2017-04-07T01:54:24.641Z,8.8
2017-04-07T01:54:34.633Z,8.8
2017-04-07T01:54:44.627Z,8.8
2017-04-07T01:54:54.621Z,8.8
2017-04-07T01:55:04.616Z,8.8
2017-04-07T01:55:14.611Z,8.8
2017-04-07T01:55:24.602Z,8.8
2017-04-07T01:55:34.599Z,8.8
2017-04-07T01:55:44.839Z,8.8
2017-04-07T01:55:54.585Z,8.8
2017-04-07T01:56:04.581Z,8.8
2017-04-07T01:56:14.572Z,8.9
2017-04-07T01:56:24.569Z,8.8
2017-04-07T01:56:34.563Z,8.9
2017-04-07T01:56:44.562Z,8.9
2017-04-07T01:56:54.551Z,8.9
2017-04-07T01:57:04.550Z,8.9
2017-04-07T01:57:14.538Z,8.9
2017-04-07T01:57:24.532Z,8.9
2017-04-07T01:57:34.527Z,8.9
2017-04-07T01:57:44.521Z,9
2017-04-07T01:57:54.514Z,8.9
2017-04-07T01:58:04.507Z,8.9
2017-04-07T01:58:14.504Z,8.9
2017-04-07T01:58:24.497Z,8.9
2017-04-07T01:58:34.491Z,8.9
2017-04-07T01:58:44.484Z,8.9
2017-04-07T01:58:54.477Z,8.9
2017-04-07T01:59:04.471Z,8.9
2017-04-07T01:59:14.467Z,8.9
2017-04-07T01:59:24.459Z,8.9
2017-04-07T01:59:34.454Z,8.9
2017-04-07T01:59:44.449Z,8.9
2017-04-07T01:59:54.443Z,8.8
2017-04-07T02:00:04.439Z,8.9
2017-04-07T02:00:14.432Z,8.9
2017-04-07T02:00:24.424Z,8.8
2017-04-07T02:00:34.419Z,8.9
2017-04-07T02:00:44.664Z,8.9
2017-04-07T02:00:54.410Z,9
2017-04-07T02:01:04.406Z,8.9
2017-04-07T02:01:14.396Z,9
2017-04-07T02:01:24.392Z,9
2017-04-07T02:01:34.386Z,8.9
2017-04-07T02:01:44.381Z,9
2017-04-07T02:01:54.374Z,8.9
2017-04-07T02:02:04.365Z,8.9
2017-04-07T02:02:14.362Z,9
2017-04-07T02:02:24.356Z,8.9
2017-04-07T02:02:34.349Z,8.9
2017-04-07T02:02:44.346Z,8.8
2017-04-07T02:02:54.336Z,8.9
2017-04-07T02:03:04.330Z,8.9
2017-04-07T02:03:14.324Z,8.9
2017-04-07T02:03:24.318Z,8.9
2017-04-07T02:03:34.314Z,8.9
2017-04-07T02:03:44.306Z,9
2017-04-07T02:03:54.298Z,9
2017-04-07T02:04:04.298Z,9
2017-04-07T02:04:14.291Z,9
2017-04-07T02:04:24.285Z,9
2017-04-07T02:04:34.280Z,9
2017-04-07T02:04:44.270Z,8.9
2017-04-07T02:04:54.267Z,9.1
2017-04-07T02:05:04.262Z,9
2017-04-07T02:05:14.252Z,9
2017-04-07T02:05:24.247Z,9
2017-04-07T02:05:34.243Z,8.9
2017-04-07T02:05:44.538Z,9
2017-04-07T02:05:54.230Z,8.9
2017-04-07T02:06:04.225Z,9
2017-04-07T02:06:14.217Z,9
2017-04-07T02:06:24.214Z,9
2017-04-07T02:06:34.207Z,8.9
2017-04-07T02:06:44.200Z,8.9
2017-04-07T02:06:54.195Z,9
2017-04-07T02:07:04.189Z,9
2017-04-07T02:07:14.184Z,9
2017-04-07T02:07:24.177Z,9
2017-04-07T02:07:34.173Z,9
2017-04-07T02:07:44.166Z,9.1
2017-04-07T02:07:54.158Z,8.9
2017-04-07T02:08:04.152Z,9
2017-04-07T02:08:14.148Z,9
2017-04-07T02:08:24.141Z,9
2017-04-07T02:08:34.138Z,9
2017-04-07T02:08:44.131Z,8.9
2017-04-07T02:08:54.125Z,9
2017-04-07T02:09:04.120Z,8.9
2017-04-07T02:09:14.111Z,9
2017-04-07T02:09:24.108Z,9
2017-04-07T02:09:34.099Z,9.1
2017-04-07T02:09:44.093Z,9
2017-04-07T02:09:54.091Z,8.9
2017-04-07T02:10:04.082Z,9
2017-04-07T02:10:14.079Z,9
2017-04-07T02:10:24.073Z,9
2017-04-07T02:10:34.066Z,9
2017-04-07T02:10:44.058Z,9
2017-04-07T02:10:54.051Z,9
2017-04-07T02:11:04.048Z,9.1
2017-04-07T02:11:14.040Z,9.1
2017-04-07T02:11:24.036Z,9.2
2017-04-07T02:11:34.030Z,9.1
2017-04-07T02:11:44.024Z,9.1
2017-04-07T02:11:54.017Z,9.1
2017-04-07T02:12:04.014Z,9.1
2017-04-07T02:12:14.004Z,9.1
2017-04-07T02:12:23.999Z,9.1
2017-04-07T02:12:33.993Z,9.1
2017-04-07T02:12:43.991Z,9.1
2017-04-07T02:12:53.981Z,9
2017-04-07T02:13:04.010Z,9
2017-04-07T02:13:13.969Z,9.1
2017-04-07T02:13:23.965Z,9.1
2017-04-07T02:13:33.957Z,9.1
2017-04-07T02:13:43.952Z,9.1
2017-04-07T02:13:53.948Z,9.1
2017-04-07T02:14:03.939Z,9.1
2017-04-07T02:14:13.937Z,9.1
2017-04-07T02:14:23.928Z,9.1
2017-04-07T02:14:33.925Z,9.1
2017-04-07T02:14:43.917Z,9.1
2017-04-07T02:14:53.910Z,9.1
2017-04-07T02:15:03.904Z,9.1
2017-04-07T02:15:13.901Z,9
2017-04-07T02:15:23.894Z,9
2017-04-07T02:15:33.886Z,9
2017-04-07T02:15:43.881Z,9
2017-04-07T02:15:53.878Z,9
2017-04-07T02:16:03.872Z,9.1
2017-04-07T02:16:13.862Z,9.1
2017-04-07T02:16:23.857Z,9
2017-04-07T02:16:33.852Z,9.1
2017-04-07T02:16:43.844Z,9
2017-04-07T02:16:53.842Z,9
2017-04-07T02:17:03.834Z,9
2017-04-07T02:17:13.829Z,9.1
2017-04-07T02:17:23.824Z,9.1
2017-04-07T02:17:33.815Z,9.1
2017-04-07T02:17:43.810Z,9.1
2017-04-07T02:17:53.806Z,9.1
2017-04-07T02:18:03.797Z,9.1
2017-04-07T02:18:13.794Z,9.1
2017-04-07T02:18:23.788Z,9.1
2017-04-07T02:18:33.781Z,9.1